Time;durP1;ratioP1;P1;durP2;ratioP2;P2;SDS_P1;SDS_P2;PMS_P1;PMS_P2;Temp;Humidity;BMP_temperature;BMP_pressure;BME280_temperature;BME280_humidity;BME280_pressure;Samples;Min_cycle;Max_cycle;Signal;HPM_P1;HPM_P2
2023/10/07 00:01:24;;;;;;;4.93;4.33;;;19.10;99.90;;;;;;5014105;28;20488;-91
2023/10/07 00:03:53;;;;;;;16.93;6.53;;;19.10;99.90;;;;;;5016460;28;20512;-91
2023/10/07 00:06:23;;;;;;;8.40;6.60;;;19.10;99.90;;;;;;5009279;28;20461;-91
2023/10/07 00:08:58;;;;;;;10.37;7.90;;;19.10;99.90;;;;;;5017793;28;20485;-90
2023/10/07 00:11:27;;;;;;;5.53;4.83;;;19.10;99.90;;;;;;5017095;28;20469;-77
2023/10/07 00:13:55;;;;;;;8.90;6.83;;;19.10;99.90;;;;;;5013121;28;20484;-76
2023/10/07 00:16:23;;;;;;;15.13;12.90;;;19.10;99.90;;;;;;5013675;28;20552;-87
2023/10/07 00:18:50;;;;;;;11.07;7.53;;;19.10;99.90;;;;;;5012680;28;20694;-77
2023/10/07 00:21:25;;;;;;;11.90;10.27;;;19.10;99.90;;;;;;5013738;28;20473;-76
2023/10/07 00:23:53;;;;;;;12.43;10.47;;;19.10;99.90;;;;;;5014422;28;20472;-76
2023/10/07 00:26:20;;;;;;;10.50;7.00;;;19.10;99.90;;;;;;5013763;28;20495;-77
2023/10/07 00:28:54;;;;;;;9.77;7.30;;;19.00;99.90;;;;;;5014034;28;21002;-78
2023/10/07 00:31:27;;;;;;;6.53;5.73;;;19.00;99.90;;;;;;5013216;28;20473;-77
2023/10/07 00:34:02;;;;;;;7.80;4.80;;;19.10;99.90;;;;;;5007120;28;20465;-76
2023/10/07 00:36:41;;;;;;;5.90;5.40;;;19.10;99.90;;;;;;4994206;28;20497;-76
2023/10/07 00:39:19;;;;;;;7.70;6.10;;;19.00;99.90;;;;;;5009617;28;20471;-77
2023/10/07 00:41:57;;;;;;;8.37;4.20;;;19.00;99.90;;;;;;5014409;28;20523;-77
2023/10/07 00:44:31;;;;;;;12.73;10.10;;;19.00;99.90;;;;;;5013711;28;20495;-77
2023/10/07 00:47:12;;;;;;;9.70;7.30;;;19.10;99.90;;;;;;5012711;28;21034;-78
2023/10/07 00:49:42;;;;;;;6.13;4.97;;;19.00;99.90;;;;;;4994336;28;20466;-78
2023/10/07 00:52:22;;;;;;;5.77;5.27;;;19.10;99.90;;;;;;4994678;28;20944;-77
2023/10/07 00:54:57;;;;;;;10.13;7.80;;;19.10;99.90;;;;;;4997882;28;20465;-77
2023/10/07 00:57:33;;;;;;;9.07;6.20;;;19.10;99.90;;;;;;5014012;28;21044;-77
2023/10/07 01:00:14;;;;;;;13.70;9.43;;;19.10;99.90;;;;;;5013975;28;20488;-77
2023/10/07 01:02:45;;;;;;;12.50;6.73;;;19.00;99.90;;;;;;5014504;28;20548;-78
2023/10/07 01:05:13;;;;;;;12.03;9.73;;;19.00;99.90;;;;;;5013404;28;20469;-77
2023/10/07 01:07:41;;;;;;;14.37;10.57;;;19.00;99.90;;;;;;5013588;28;21045;-77
2023/10/07 01:10:13;;;;;;;11.60;8.70;;;19.00;99.90;;;;;;5012783;28;20449;-80
2023/10/07 01:12:42;;;;;;;6.97;5.13;;;19.10;99.90;;;;;;5013593;28;20469;-77
2023/10/07 01:15:18;;;;;;;7.20;6.50;;;19.10;99.90;;;;;;5013371;28;20492;-78
2023/10/07 01:17:45;;;;;;;7.53;6.10;;;19.10;99.90;;;;;;5013976;28;20472;-76
2023/10/07 01:20:14;;;;;;;7.83;4.60;;;19.00;99.90;;;;;;5021548;28;20524;-89
2023/10/07 01:23:02;;;;;;;8.53;6.97;;;19.10;99.90;;;;;;5031087;28;20464;-76
2023/10/07 01:25:36;;;;;;;5.13;4.43;;;19.00;99.90;;;;;;5012538;28;20465;-76
2023/10/07 01:28:04;;;;;;;6.40;5.73;;;19.10;99.90;;;;;;5014989;28;20465;-91
2023/10/07 01:30:34;;;;;;;9.40;7.80;;;19.10;99.90;;;;;;5013956;28;20461;-90
2023/10/07 01:33:10;;;;;;;10.97;9.87;;;19.10;99.90;;;;;;5015442;28;20990;-89
2023/10/07 01:35:39;;;;;;;6.60;4.80;;;19.10;99.90;;;;;;5006060;28;20492;-90
2023/10/07 01:38:08;;;;;;;6.90;4.23;;;19.10;99.90;;;;;;5014316;28;20852;-92
2023/10/07 01:40:54;;;;;;;6.03;3.93;;;19.10;99.90;;;;;;5014755;28;20484;-91
2023/10/07 01:43:23;;;;;;;12.13;7.83;;;19.10;99.90;;;;;;5015171;28;20496;-91
2023/10/07 01:45:53;;;;;;;6.33;4.20;;;19.10;99.90;;;;;;5014928;28;20465;-91
2023/10/07 01:48:20;;;;;;;22.33;18.00;;;19.10;99.90;;;;;;5015852;28;20468;-91
2023/10/07 01:50:49;;;;;;;11.57;8.23;;;19.10;99.90;;;;;;5015575;28;20504;-92
2023/10/07 01:53:23;;;;;;;9.83;7.30;;;19.10;99.90;;;;;;5012942;28;20524;-91
2023/10/07 01:55:51;;;;;;;8.20;6.27;;;19.10;99.90;;;;;;4997766;28;20549;-89
2023/10/07 01:58:19;;;;;;;9.83;6.67;;;19.10;99.90;;;;;;4996936;28;20574;-93
2023/10/07 02:00:51;;;;;;;7.07;5.60;;;19.10;99.90;;;;;;4996645;28;20466;-93
2023/10/07 02:03:23;;;;;;;10.33;8.13;;;19.10;99.90;;;;;;4996997;28;20544;-92
2023/10/07 02:05:50;;;;;;;9.30;7.20;;;19.10;99.90;;;;;;4997133;28;20561;-92
2023/10/07 02:08:22;;;;;;;8.87;5.97;;;19.10;99.90;;;;;;4998022;28;20477;-89
2023/10/07 02:10:56;;;;;;;10.00;9.00;;;19.10;99.90;;;;;;4995657;28;20478;-76
2023/10/07 02:13:23;;;;;;;13.83;11.87;;;19.00;99.90;;;;;;4995350;28;20881;-91
2023/10/07 02:15:52;;;;;;;16.23;11.70;;;19.10;99.90;;;;;;4993912;28;20505;-77
2023/10/07 02:18:20;;;;;;;7.10;6.17;;;19.00;99.90;;;;;;4993475;28;20470;-77
2023/10/07 02:20:52;;;;;;;5.80;4.13;;;19.10;99.90;;;;;;4993254;28;20470;-78
2023/10/07 02:23:35;;;;;;;9.40;7.63;;;19.00;99.90;;;;;;4993380;28;20481;-78
2023/10/07 02:26:05;;;;;;;9.70;8.07;;;19.00;99.90;;;;;;4993145;28;20458;-76
2023/10/07 02:28:34;;;;;;;8.50;5.90;;;19.10;99.90;;;;;;4994352;28;20470;-90
2023/10/07 02:31:07;;;;;;;9.73;5.63;;;19.00;99.90;;;;;;4994006;28;20466;-77
2023/10/07 02:33:43;;;;;;;10.57;9.30;;;19.00;99.90;;;;;;4994900;28;20531;-92
2023/10/07 02:36:12;;;;;;;11.33;8.63;;;19.10;99.90;;;;;;5010895;28;20468;-91
2023/10/07 02:38:43;;;;;;;14.33;8.60;;;19.00;99.90;;;;;;5013212;28;20506;-77
2023/10/07 02:41:18;;;;;;;12.80;8.80;;;19.10;99.90;;;;;;5013365;28;20850;-77
2023/10/07 02:43:48;;;;;;;6.83;4.83;;;19.10;99.90;;;;;;5007742;28;20978;-77
2023/10/07 02:46:31;;;;;;;11.50;9.23;;;19.00;99.90;;;;;;4994938;28;20465;-93
2023/10/07 02:49:05;;;;;;;14.90;9.23;;;19.00;99.90;;;;;;5007527;28;20479;-93
2023/10/07 02:51:32;;;;;;;14.13;8.87;;;19.00;99.90;;;;;;5014860;28;20480;-77
2023/10/07 02:54:06;;;;;;;9.30;7.30;;;19.00;99.90;;;;;;5012211;28;20519;-77
2023/10/07 02:56:43;;;;;;;8.17;5.63;;;19.00;99.90;;;;;;5012765;28;20497;-78
2023/10/07 02:59:24;;;;;;;9.57;7.90;;;19.00;99.90;;;;;;5009102;28;20474;-91
2023/10/07 03:02:12;;;;;;;16.93;11.33;;;19.00;99.90;;;;;;4996153;28;20477;-77
2023/10/07 03:04:42;;;;;;;7.53;6.83;;;19.00;99.90;;;;;;4997605;28;20972;-92
2023/10/07 03:07:14;;;;;;;10.77;7.30;;;19.00;99.90;;;;;;4997609;28;20490;-92
2023/10/07 03:09:54;;;;;;;9.13;8.17;;;19.00;99.90;;;;;;4999212;28;20474;-92
2023/10/07 03:12:27;;;;;;;10.80;8.07;;;19.00;99.90;;;;;;4998989;28;20508;-92
2023/10/07 03:14:57;;;;;;;12.77;8.50;;;19.00;99.90;;;;;;4996523;28;20861;-77
2023/10/07 03:17:37;;;;;;;11.90;10.70;;;19.00;99.90;;;;;;4998765;28;20470;-92
2023/10/07 03:23:10;;;;;;;9.17;7.80;;;19.00;99.90;;;;;;4996051;28;20462;-77
2023/10/07 03:25:55;;;;;;;9.90;8.10;;;19.00;99.90;;;;;;4998883;28;20538;-90
2023/10/07 03:28:24;;;;;;;11.13;8.43;;;19.10;99.90;;;;;;5002718;28;20476;-89
2023/10/07 03:30:52;;;;;;;12.40;9.70;;;19.00;99.90;;;;;;4999224;28;20530;-91
2023/10/07 03:33:23;;;;;;;11.10;8.53;;;19.10;99.90;;;;;;4998612;28;20490;-77
2023/10/07 03:36:08;;;;;;;8.67;7.77;;;19.10;99.90;;;;;;4995961;28;20458;-77
2023/10/07 03:38:35;;;;;;;14.10;11.33;;;19.00;99.90;;;;;;4996990;28;20496;-92
2023/10/07 03:41:09;;;;;;;7.10;5.43;;;19.00;99.90;;;;;;4996910;28;20520;-77
2023/10/07 03:43:37;;;;;;;8.47;7.20;;;19.00;99.90;;;;;;4998543;28;20549;-90
2023/10/07 03:46:04;;;;;;;9.00;8.10;;;19.00;99.90;;;;;;4998316;28;20800;-91
2023/10/07 03:48:43;;;;;;;5.93;5.43;;;19.00;99.90;;;;;;4998621;28;20473;-77
2023/10/07 03:51:12;;;;;;;9.80;7.47;;;19.00;99.90;;;;;;4998611;28;20461;-77
2023/10/07 03:53:45;;;;;;;18.20;13.80;;;19.00;99.90;;;;;;4995199;28;20477;-77
2023/10/07 03:56:14;;;;;;;12.60;11.30;;;19.00;99.90;;;;;;4998287;28;20504;-80
2023/10/07 03:58:42;;;;;;;10.57;6.47;;;19.00;99.90;;;;;;4998047;28;20473;-77
2023/10/07 04:01:16;;;;;;;7.37;6.30;;;19.00;99.90;;;;;;4996393;28;20553;-90
2023/10/07 04:03:46;;;;;;;13.13;11.67;;;19.00;99.90;;;;;;4995744;28;20483;-77
2023/10/07 04:06:14;;;;;;;14.10;9.40;;;19.00;99.90;;;;;;4999360;28;20474;-91
2023/10/07 04:08:41;;;;;;;9.27;8.30;;;19.00;99.90;;;;;;4996185;28;20477;-78
2023/10/07 04:11:19;;;;;;;12.70;7.30;;;19.00;99.90;;;;;;4998900;28;20469;-91
2023/10/07 04:13:53;;;;;;;8.17;6.23;;;19.10;99.90;;;;;;4995126;28;20824;-77
2023/10/07 04:16:24;;;;;;;7.70;6.40;;;19.10;99.90;;;;;;4997518;28;20498;-91
2023/10/07 04:18:51;;;;;;;6.30;5.17;;;19.10;99.90;;;;;;4997927;28;20465;-92
2023/10/07 04:21:18;;;;;;;10.30;7.43;;;19.10;99.90;;;;;;4997795;28;20473;-93
2023/10/07 04:23:45;;;;;;;7.50;6.00;;;19.10;99.90;;;;;;4996575;28;20470;-79
2023/10/07 04:26:19;;;;;;;6.67;5.93;;;19.10;99.90;;;;;;4996162;28;20471;-93
2023/10/07 04:28:49;;;;;;;7.03;6.33;;;19.10;99.90;;;;;;4995850;28;20470;-77
2023/10/07 04:31:17;;;;;;;8.43;6.00;;;19.10;99.90;;;;;;4995393;28;20462;-78
2023/10/07 04:33:53;;;;;;;7.67;6.40;;;19.10;99.90;;;;;;4994378;28;20480;-78
2023/10/07 04:36:33;;;;;;;7.10;4.30;;;19.10;99.90;;;;;;5000905;28;20469;-91
2023/10/07 04:39:08;;;;;;;11.90;6.53;;;19.10;99.90;;;;;;4996219;28;20777;-92
2023/10/07 04:41:36;;;;;;;5.20;4.50;;;19.10;99.90;;;;;;4995616;28;20501;-77
2023/10/07 04:44:27;;;;;;;7.00;6.17;;;19.00;99.90;;;;;;4997439;28;20462;-93
2023/10/07 04:47:20;;;;;;;6.07;5.47;;;19.10;99.90;;;;;;4997944;28;20454;-91
2023/10/07 04:49:58;;;;;;;5.87;5.17;;;19.10;99.90;;;;;;4996664;28;20477;-77
2023/10/07 04:52:28;;;;;;;26.10;19.63;;;19.10;99.90;;;;;;4995835;28;20811;-91
2023/10/07 04:54:58;;;;;;;7.40;6.70;;;19.10;99.90;;;;;;4995026;28;20477;-77
2023/10/07 04:57:42;;;;;;;7.43;5.47;;;19.10;99.90;;;;;;4996784;28;20466;-91
2023/10/07 05:00:30;;;;;;;13.73;9.33;;;19.10;99.90;;;;;;4995360;28;21425;-78
2023/10/07 05:02:58;;;;;;;10.93;9.70;;;19.00;99.90;;;;;;4997166;28;20481;-92
2023/10/07 05:05:28;;;;;;;10.10;8.73;;;19.00;99.90;;;;;;4995098;28;20474;-77
2023/10/07 05:07:58;;;;;;;5.90;5.30;;;19.00;99.90;;;;;;4994074;28;20532;-78
2023/10/07 05:10:24;;;;;;;8.20;5.30;;;19.00;99.90;;;;;;4996429;28;20466;-78
2023/10/07 05:12:55;;;;;;;6.10;5.47;;;19.00;99.90;;;;;;4995134;28;20540;-78
2023/10/07 05:15:25;;;;;;;5.67;5.10;;;19.00;99.90;;;;;;4994305;28;20482;-77
2023/10/07 05:17:52;;;;;;;6.13;5.43;;;19.00;99.90;;;;;;5002785;28;20470;-89
2023/10/07 05:20:28;;;;;;;8.77;6.50;;;18.90;99.90;;;;;;5014345;28;20469;-92
2023/10/07 05:23:00;;;;;;;7.70;7.00;;;18.90;99.90;;;;;;4997205;28;20465;-77
2023/10/07 05:25:27;;;;;;;6.20;5.60;;;18.90;99.90;;;;;;4995911;28;20470;-91
2023/10/07 05:27:56;;;;;;;5.27;4.70;;;18.90;99.90;;;;;;5002342;28;20811;-77
2023/10/07 05:30:24;;;;;;;6.70;5.70;;;18.90;99.90;;;;;;4995589;28;20466;-77
2023/10/07 05:32:52;;;;;;;6.30;5.20;;;18.90;99.90;;;;;;4998718;28;20497;-92
2023/10/07 05:35:19;;;;;;;8.23;6.60;;;18.90;99.90;;;;;;4995888;28;20873;-77
2023/10/07 05:37:47;;;;;;;6.13;5.50;;;18.90;99.90;;;;;;4994214;28;20888;-76
2023/10/07 05:40:16;;;;;;;5.93;5.07;;;18.90;99.90;;;;;;4994449;28;20461;-92
2023/10/07 05:42:44;;;;;;;10.40;6.40;;;18.90;99.90;;;;;;4994701;28;20506;-77
2023/10/07 05:45:14;;;;;;;5.80;4.40;;;18.80;99.90;;;;;;4993128;28;20773;-78
2023/10/07 05:47:47;;;;;;;6.13;4.90;;;18.80;99.90;;;;;;4993577;28;20466;-78
2023/10/07 05:50:14;;;;;;;9.27;6.80;;;18.90;99.90;;;;;;4991306;28;20567;-78
2023/10/07 05:52:42;;;;;;;10.43;6.17;;;18.90;99.90;;;;;;4993771;28;20474;-78
2023/10/07 05:55:10;;;;;;;5.50;5.00;;;18.90;99.90;;;;;;4992897;28;20482;-79
2023/10/07 05:57:37;;;;;;;5.97;5.03;;;18.90;99.90;;;;;;5000265;28;20532;-93
2023/10/07 06:00:09;;;;;;;10.53;6.20;;;18.90;99.90;;;;;;4995438;28;20861;-90
2023/10/07 06:02:37;;;;;;;8.80;5.80;;;18.90;99.90;;;;;;4995342;28;20493;-91
2023/10/07 06:05:10;;;;;;;7.77;6.60;;;18.90;99.90;;;;;;4993209;28;20534;-79
2023/10/07 06:07:39;;;;;;;5.43;4.87;;;18.90;99.90;;;;;;4993238;28;20478;-76
2023/10/07 06:10:09;;;;;;;7.30;5.53;;;18.90;99.90;;;;;;4992667;28;20497;-77
2023/10/07 06:12:36;;;;;;;7.63;5.57;;;19.00;99.90;;;;;;4993280;28;20478;-78
2023/10/07 06:15:08;;;;;;;9.73;5.33;;;19.00;99.90;;;;;;4993651;28;20470;-78
2023/10/07 06:17:35;;;;;;;8.80;7.13;;;19.00;99.90;;;;;;4994128;28;20478;-91
2023/10/07 06:20:13;;;;;;;6.67;5.60;;;19.00;99.90;;;;;;4994184;28;20528;-92
2023/10/07 06:22:50;;;;;;;5.03;4.63;;;19.00;99.90;;;;;;4994482;28;20548;-92
2023/10/07 06:25:17;;;;;;;9.23;6.20;;;19.00;99.90;;;;;;4993310;28;20520;-78
2023/10/07 06:27:44;;;;;;;8.67;5.70;;;18.90;99.90;;;;;;4994561;28;20477;-92
2023/10/07 06:30:20;;;;;;;8.37;6.37;;;18.90;99.90;;;;;;4995755;28;20484;-91
2023/10/07 06:32:55;;;;;;;6.33;4.73;;;18.90;99.90;;;;;;4995505;28;20473;-92
2023/10/07 06:35:23;;;;;;;6.80;5.90;;;18.90;99.90;;;;;;4994444;28;20515;-77
2023/10/07 06:37:52;;;;;;;7.23;5.80;;;18.90;99.90;;;;;;4997671;28;20556;-90
2023/10/07 06:40:28;;;;;;;6.43;4.63;;;18.90;99.90;;;;;;4998177;28;20979;-77
2023/10/07 06:42:58;;;;;;;7.67;5.90;;;18.90;99.90;;;;;;4997478;28;20855;-91
2023/10/07 06:45:35;;;;;;;10.07;7.50;;;18.90;99.90;;;;;;4996816;28;20469;-77
2023/10/07 06:48:05;;;;;;;6.30;5.43;;;18.90;99.90;;;;;;4996451;28;20564;-78
2023/10/07 06:50:34;;;;;;;9.53;7.87;;;18.80;99.90;;;;;;5000262;28;20519;-90
2023/10/07 06:53:03;;;;;;;6.40;5.80;;;18.80;99.90;;;;;;4997769;28;20469;-77
2023/10/07 06:55:36;;;;;;;6.53;5.50;;;18.80;99.90;;;;;;4996582;28;20481;-90
2023/10/07 06:58:05;;;;;;;9.50;5.07;;;18.90;99.90;;;;;;4997279;28;20466;-77
2023/10/07 07:00:47;;;;;;;7.77;5.40;;;18.80;99.90;;;;;;4999745;28;20463;-91
2023/10/07 07:03:17;;;;;;;6.13;5.53;;;18.90;99.90;;;;;;4998501;28;21032;-78
2023/10/07 07:05:46;;;;;;;7.53;6.00;;;18.90;99.90;;;;;;4996729;28;20867;-77
2023/10/07 07:08:22;;;;;;;7.77;6.60;;;18.80;99.90;;;;;;4997093;28;20556;-87
2023/10/07 07:10:56;;;;;;;6.80;5.67;;;18.80;99.90;;;;;;4999749;28;20472;-78
2023/10/07 07:13:27;;;;;;;9.83;8.37;;;18.80;99.90;;;;;;4997634;28;20466;-77
2023/10/07 07:15:57;;;;;;;10.60;7.23;;;18.90;99.90;;;;;;4996960;28;20501;-93
2023/10/07 07:18:26;;;;;;;10.40;6.27;;;18.80;99.90;;;;;;4998378;28;20480;-92
2023/10/07 07:23:45;;;;;;;9.80;7.50;;;18.90;99.90;;;;;;4990504;28;20457;-76
2023/10/07 07:26:18;;;;;;;14.80;12.63;;;18.90;99.90;;;;;;4998845;28;20474;-77
2023/10/07 07:28:44;;;;;;;8.33;6.83;;;18.80;99.90;;;;;;4996146;28;20469;-78
2023/10/07 07:31:26;;;;;;;7.70;6.90;;;18.90;99.90;;;;;;4996031;28;20854;-78
2023/10/07 07:34:06;;;;;;;10.60;7.03;;;18.80;99.90;;;;;;4997630;28;20484;-91
2023/10/07 07:36:39;;;;;;;6.80;5.73;;;18.80;99.90;;;;;;4995786;28;20962;-77
2023/10/07 07:39:17;;;;;;;5.40;4.77;;;18.80;99.90;;;;;;4999137;28;20473;-89
2023/10/07 07:41:56;;;;;;;10.43;6.07;;;18.80;99.90;;;;;;5000497;28;20468;-78
2023/10/07 07:44:32;;;;;;;5.40;4.90;;;18.90;99.90;;;;;;5007043;28;20470;-92
2023/10/07 07:47:02;;;;;;;8.93;6.40;;;18.90;99.90;;;;;;5005498;28;20485;-91
2023/10/07 07:49:32;;;;;;;11.53;7.73;;;18.90;99.90;;;;;;5001890;28;20470;-78
2023/10/07 07:52:00;;;;;;;8.07;6.60;;;18.90;99.90;;;;;;4995818;28;20549;-77
2023/10/07 07:54:30;;;;;;;7.90;5.73;;;18.90;99.90;;;;;;5000375;28;20504;-77
2023/10/07 07:57:04;;;;;;;9.30;6.87;;;18.90;99.90;;;;;;4998016;28;20469;-92
2023/10/07 07:59:32;;;;;;;9.90;7.40;;;18.90;99.90;;;;;;5000957;28;20476;-91
2023/10/07 08:02:10;;;;;;;8.90;6.37;;;18.90;99.90;;;;;;4996182;28;20524;-77
2023/10/07 08:04:43;;;;;;;8.90;5.80;;;18.90;99.90;;;;;;4995959;28;20497;-89
2023/10/07 08:07:18;;;;;;;6.90;6.20;;;18.90;99.90;;;;;;4997611;28;20458;-92
2023/10/07 08:09:51;;;;;;;9.50;7.70;;;18.90;99.90;;;;;;4998422;28;20466;-91
2023/10/07 08:12:28;;;;;;;7.40;6.70;;;18.90;99.90;;;;;;4998311;28;20473;-91
2023/10/07 08:14:58;;;;;;;5.73;5.00;;;19.00;99.90;;;;;;4995781;28;20860;-78
2023/10/07 08:17:27;;;;;;;6.50;5.80;;;19.00;99.90;;;;;;4995193;28;20466;-78
2023/10/07 08:19:54;;;;;;;5.37;4.97;;;19.00;99.90;;;;;;4993701;28;20524;-78
2023/10/07 08:22:23;;;;;;;10.07;6.77;;;19.00;99.90;;;;;;4995480;28;20462;-78
2023/10/07 08:24:53;;;;;;;5.87;5.33;;;19.00;99.90;;;;;;4996204;28;20478;-91
2023/10/07 08:30:37;;;;;;;7.93;4.90;;;19.00;99.90;;;;;;4955460;28;20941;-91
2023/10/07 08:33:06;;;;;;;5.57;3.83;;;19.00;99.90;;;;;;4995938;28;21031;-77
2023/10/07 08:35:34;;;;;;;5.23;4.20;;;19.00;99.90;;;;;;4996152;28;20465;-77
2023/10/07 08:38:19;;;;;;;4.60;4.20;;;19.00;99.90;;;;;;4992733;28;20509;-78
2023/10/07 08:44:03;;;;;;;6.20;4.23;;;19.00;99.90;;;;;;4971334;28;20495;-78
2023/10/07 08:46:32;;;;;;;5.93;4.70;;;19.00;99.90;;;;;;5008724;28;20474;-77
2023/10/07 08:49:05;;;;;;;5.67;5.23;;;19.00;99.90;;;;;;4995738;28;20481;-77
2023/10/07 08:51:40;;;;;;;6.53;6.00;;;19.00;99.90;;;;;;4999015;28;20863;-91
2023/10/07 08:54:17;;;;;;;6.87;6.07;;;19.00;99.90;;;;;;4994121;28;20473;-90
2023/10/07 08:56:50;;;;;;;6.03;5.53;;;19.00;99.90;;;;;;4996782;28;20501;-77
2023/10/07 08:59:17;;;;;;;7.00;6.10;;;19.00;99.90;;;;;;4995366;28;20472;-91
2023/10/07 09:01:48;;;;;;;7.80;5.23;;;19.00;99.90;;;;;;4996791;28;20474;-91
2023/10/07 09:04:18;;;;;;;7.23;6.53;;;19.00;99.90;;;;;;4995029;28;20524;-79
2023/10/07 09:06:50;;;;;;;7.40;5.17;;;19.00;99.90;;;;;;4995339;28;20556;-77
2023/10/07 09:09:34;;;;;;;8.60;7.70;;;19.00;99.90;;;;;;4994930;28;20466;-91
2023/10/07 09:12:11;;;;;;;7.10;6.40;;;19.00;99.90;;;;;;4995937;28;20971;-77
2023/10/07 09:15:21;;;;;;;6.67;6.07;;;19.00;99.90;;;;;;4978790;28;20481;-78
2023/10/07 09:18:02;;;;;;;6.90;5.63;;;19.00;99.90;;;;;;4941938;28;20469;-78
2023/10/07 09:20:31;;;;;;;6.30;5.63;;;19.00;99.90;;;;;;4992292;28;20991;-77
2023/10/07 09:23:07;;;;;;;5.23;4.83;;;19.10;99.90;;;;;;4995130;28;20545;-90
2023/10/07 09:28:51;;;;;;;8.70;7.43;;;19.00;99.90;;;;;;4956387;28;20889;-90
2023/10/07 09:32:12;;;;;;;7.30;6.60;;;19.10;99.90;;;;;;4976891;28;20479;-77
2023/10/07 09:35:19;;;;;;;11.30;9.10;;;19.10;99.90;;;;;;4983381;28;20481;-77
2023/10/07 09:43:37;;;;;;;7.57;6.77;;;19.10;99.90;;;;;;4933684;29;20460;-77
2023/10/07 09:46:14;;;;;;;9.00;7.63;;;19.10;99.90;;;;;;4983648;28;21034;-91
2023/10/07 09:48:45;;;;;;;8.40;7.20;;;19.10;99.90;;;;;;4996182;28;20454;-77
2023/10/07 09:51:22;;;;;;;9.40;8.43;;;19.10;99.90;;;;;;4995075;28;20820;-78
2023/10/07 09:54:16;;;;;;;7.37;6.70;;;19.10;99.90;;;;;;4993603;28;20496;-77
2023/10/07 09:57:00;;;;;;;7.07;6.57;;;19.00;99.90;;;;;;4993301;28;20470;-78
2023/10/07 09:59:43;;;;;;;8.70;6.93;;;19.10;99.90;;;;;;4992748;28;20501;-78
2023/10/07 10:02:42;;;;;;;9.07;7.60;;;19.00;99.90;;;;;;4993433;28;20470;-77
2023/10/07 10:05:26;;;;;;;10.73;8.40;;;19.00;99.90;;;;;;4993485;28;20478;-78
2023/10/07 10:08:12;;;;;;;10.00;9.00;;;19.00;99.90;;;;;;4993236;28;20478;-78
2023/10/07 10:10:45;;;;;;;13.20;9.00;;;18.90;99.90;;;;;;4992528;28;20984;-79
2023/10/07 10:13:28;;;;;;;8.30;7.40;;;18.90;99.90;;;;;;4993964;28;20869;-91
2023/10/07 10:16:00;;;;;;;8.10;7.33;;;18.80;99.90;;;;;;4994097;28;20465;-79
2023/10/07 10:18:41;;;;;;;9.17;8.27;;;18.80;99.90;;;;;;4993475;28;20461;-77
2023/10/07 10:21:09;;;;;;;9.90;8.90;;;18.80;99.90;;;;;;4994571;28;20861;-90
2023/10/07 10:23:38;;;;;;;11.03;10.03;;;18.80;99.90;;;;;;4993638;28;20473;-78
2023/10/07 10:26:15;;;;;;;9.90;8.97;;;18.80;99.90;;;;;;4992504;28;20484;-78
2023/10/07 10:28:59;;;;;;;9.60;8.60;;;18.80;99.90;;;;;;4995345;28;20520;-90
2023/10/07 10:31:32;;;;;;;11.63;10.57;;;18.80;99.90;;;;;;4995191;28;20808;-91
2023/10/07 10:34:07;;;;;;;11.40;10.17;;;18.80;99.90;;;;;;4993453;28;20477;-78
2023/10/07 10:36:43;;;;;;;11.43;10.40;;;18.80;99.90;;;;;;4993003;28;20462;-91
2023/10/07 10:48:44;;;;;;;11.17;10.27;;;18.90;99.90;;;;;;4913692;29;20479;-78
2023/10/07 10:51:45;;;;;;;12.00;10.83;;;18.90;99.90;;;;;;4933661;29;20480;-77
2023/10/07 10:54:15;;;;;;;13.57;12.17;;;18.80;99.90;;;;;;4961355;28;20473;-77
2023/10/07 10:57:05;;;;;;;12.43;11.27;;;18.80;99.90;;;;;;4989366;28;20552;-90
2023/10/07 10:59:42;;;;;;;14.37;13.00;;;18.80;99.90;;;;;;4992469;28;20532;-78
2023/10/07 11:02:10;;;;;;;14.77;13.37;;;18.80;99.90;;;;;;4992839;28;20508;-78
2023/10/07 11:04:37;;;;;;;14.77;13.20;;;18.80;99.90;;;;;;4992854;28;20473;-78
2023/10/07 11:07:07;;;;;;;14.80;13.60;;;18.80;99.90;;;;;;4992900;28;20520;-77
2023/10/07 11:09:47;;;;;;;12.77;11.57;;;18.80;99.90;;;;;;4993887;28;20505;-81
2023/10/07 11:12:17;;;;;;;14.83;13.50;;;18.80;99.90;;;;;;4992981;28;20531;-78
2023/10/07 11:14:47;;;;;;;12.80;11.70;;;18.80;99.90;;;;;;5005408;28;20552;-91
2023/10/07 11:17:15;;;;;;;14.57;13.23;;;18.80;99.90;;;;;;5014755;28;20577;-91
2023/10/07 11:19:44;;;;;;;14.20;12.80;;;18.80;99.90;;;;;;5014077;28;20794;-90
2023/10/07 11:22:19;;;;;;;14.87;13.20;;;18.80;99.90;;;;;;5022347;28;20480;-91
2023/10/07 11:24:50;;;;;;;14.60;13.20;;;18.90;99.90;;;;;;5024307;28;20479;-91
2023/10/07 11:27:19;;;;;;;13.87;12.47;;;18.80;99.90;;;;;;5022493;28;20492;-90
2023/10/07 11:29:57;;;;;;;13.53;12.33;;;18.80;99.90;;;;;;5017450;28;20903;-90
2023/10/07 11:32:30;;;;;;;15.00;13.80;;;18.90;99.90;;;;;;5024324;28;20451;-92
2023/10/07 11:34:59;;;;;;;16.40;14.90;;;18.90;99.90;;;;;;5019014;28;21005;-91
2023/10/07 11:37:29;;;;;;;15.13;13.90;;;18.90;99.90;;;;;;5022632;28;20489;-89
2023/10/07 11:39:57;;;;;;;15.37;13.87;;;18.90;99.90;;;;;;5036663;28;20499;-89
2023/10/07 11:42:26;;;;;;;15.20;13.90;;;18.80;99.90;;;;;;5036134;28;20476;-81
2023/10/07 11:44:55;;;;;;;14.70;13.30;;;18.90;99.90;;;;;;5005141;28;20452;-79
2023/10/07 11:50:08;;;;;;;17.20;15.37;;;18.90;99.90;;;;;;5006285;28;20527;-81
2023/10/07 11:52:40;;;;;;;15.03;13.73;;;18.80;99.90;;;;;;5016399;28;20457;-88
2023/10/07 11:55:09;;;;;;;12.77;11.57;;;18.80;99.90;;;;;;5035767;28;20555;-87
2023/10/07 11:57:37;;;;;;;13.60;12.30;;;18.80;99.90;;;;;;5022084;28;20537;-79
2023/10/07 12:00:10;;;;;;;15.03;13.73;;;18.90;99.90;;;;;;4995793;28;20481;-79
2023/10/07 12:02:39;;;;;;;15.90;14.37;;;18.90;99.90;;;;;;5021038;28;20452;-80
2023/10/07 12:05:07;;;;;;;16.67;15.17;;;18.90;99.90;;;;;;5033979;28;20474;-79
2023/10/07 12:07:36;;;;;;;15.43;14.13;;;18.90;99.90;;;;;;5034134;28;20818;-79
2023/10/07 12:10:09;;;;;;;14.67;13.37;;;18.90;99.90;;;;;;5038222;28;20518;-87
2023/10/07 12:12:42;;;;;;;17.10;15.70;;;18.90;99.90;;;;;;5030770;28;20851;-89
2023/10/07 12:15:12;;;;;;;16.83;15.20;;;18.90;99.90;;;;;;5034988;28;20473;-79
2023/10/07 12:17:43;;;;;;;16.37;14.97;;;18.90;99.90;;;;;;5032871;28;20452;-89
2023/10/07 12:20:12;;;;;;;18.03;16.27;;;18.80;99.90;;;;;;5024191;28;20469;-88
2023/10/07 12:22:42;;;;;;;19.77;17.90;;;18.80;99.90;;;;;;5023756;28;20468;-88
2023/10/07 12:25:15;;;;;;;19.30;17.40;;;18.80;99.90;;;;;;5016427;28;21041;-89
2023/10/07 12:27:43;;;;;;;17.70;15.80;;;18.80;99.90;;;;;;5015685;28;20457;-79
2023/10/07 12:30:11;;;;;;;17.60;15.80;;;18.80;99.90;;;;;;5014778;28;20884;-79
2023/10/07 12:32:39;;;;;;;16.30;14.70;;;18.80;99.90;;;;;;5014081;28;20552;-79
2023/10/07 12:35:09;;;;;;;17.10;15.40;;;18.70;99.90;;;;;;5013119;28;20987;-79
2023/10/07 12:37:41;;;;;;;16.70;15.03;;;18.70;99.90;;;;;;5013894;28;20977;-80
2023/10/07 12:40:12;;;;;;;18.30;15.47;;;18.70;99.90;;;;;;5014500;28;20672;-79
2023/10/07 12:42:41;;;;;;;17.33;15.63;;;18.70;99.90;;;;;;5014088;28;20473;-79
2023/10/07 12:45:16;;;;;;;18.60;16.90;;;18.70;99.90;;;;;;5014566;28;20465;-81
2023/10/07 12:47:44;;;;;;;16.60;14.90;;;18.70;99.90;;;;;;5013800;28;22399;-80
2023/10/07 12:50:24;;;;;;;17.70;14.47;;;18.70;99.90;;;;;;5014411;28;20516;-78
2023/10/07 12:52:56;;;;;;;15.70;14.03;;;18.70;99.90;;;;;;5015285;28;20535;-79
2023/10/07 12:55:34;;;;;;;16.53;15.00;;;18.70;99.90;;;;;;5022877;28;20472;-89
2023/10/07 12:58:18;;;;;;;15.20;13.80;;;18.70;99.90;;;;;;5020301;28;20460;-79
2023/10/07 13:00:45;;;;;;;15.57;14.10;;;18.70;99.90;;;;;;5015618;28;20480;-89
2023/10/07 13:03:12;;;;;;;18.80;17.00;;;18.70;99.90;;;;;;5018799;28;20819;-87
2023/10/07 13:05:42;;;;;;;16.97;15.30;;;18.70;99.90;;;;;;5018417;28;20551;-88
2023/10/07 13:08:12;;;;;;;18.87;16.83;;;18.80;99.90;;;;;;5019694;28;20472;-89
2023/10/07 13:10:40;;;;;;;19.27;17.27;;;18.80;99.90;;;;;;5020347;28;20461;-84
2023/10/07 13:13:07;;;;;;;19.77;17.80;;;18.80;99.90;;;;;;5014968;28;20496;-80
2023/10/07 13:15:35;;;;;;;17.23;15.53;;;18.80;99.90;;;;;;5013613;28;20535;-79
2023/10/07 13:18:03;;;;;;;16.10;14.43;;;18.80;99.90;;;;;;5013588;28;20461;-80
2023/10/07 13:20:33;;;;;;;15.87;14.20;;;18.80;99.90;;;;;;5013955;28;20473;-79
2023/10/07 13:23:00;;;;;;;15.33;13.83;;;18.90;99.90;;;;;;5013562;28;20481;-80
2023/10/07 13:25:33;;;;;;;17.53;14.20;;;18.90;99.90;;;;;;5019933;28;20468;-87
2023/10/07 13:28:00;;;;;;;13.20;12.00;;;18.90;99.90;;;;;;5020199;28;20477;-81
2023/10/07 13:30:29;;;;;;;13.60;12.30;;;18.90;99.90;;;;;;5014611;28;20555;-80
2023/10/07 13:32:57;;;;;;;14.90;13.43;;;19.00;99.90;;;;;;5019550;28;20548;-86
2023/10/07 13:35:27;;;;;;;14.80;13.40;;;19.00;99.90;;;;;;5015474;28;20477;-78
2023/10/07 13:37:56;;;;;;;22.30;18.67;;;19.00;99.90;;;;;;5013517;28;20497;-79
2023/10/07 13:40:31;;;;;;;17.77;15.90;;;19.00;99.90;;;;;;5013971;28;20475;-80
2023/10/07 13:42:59;;;;;;;16.17;14.67;;;19.00;99.90;;;;;;5013233;28;20966;-80